Flight Track Log - Related Links

Times and Time Zones

All times are in EDT time to prevent confusion due to time zone crossing. See the TRS359 flight status page for this flight to view local times or setup timezone preferences in your user account.

Time Position Orientation Groundspeed Altitude Reporting Facility
EDT Latitude Longitude Course Direction KTS MPH feet Rate Location/Type
Wed 07:39:32 AM 39.3000 -94.7333 180° South 161 185 1,700  Level Kansas City TRACON
Wed 07:40:14 AM 39.2667 -94.7333 180° South 194 223 3,100 2,132 Climbing Kansas City TRACON
Wed 07:40:48 AM 39.2267 -94.7475 195° South 219 252 4,400 2,716 Climbing Kansas City Center
Wed 07:41:49 AM 39.1783 -94.6936 139° Southeast 276 318 7,400 2,852 Climbing Kansas City Center
Wed 07:42:50 AM 39.1606 -94.5800 101° East 290 334 10,200 2,852 Climbing Kansas City Center
Wed 07:43:51 AM 39.1447 -94.4772 101° East 303 349 13,200 2,410 Climbing Kansas City Center
Wed 07:44:52 AM 39.1225 -94.3692 105° East 327 376 15,100 1,770 Climbing Kansas City Center
Wed 07:45:53 AM 39.0750 -94.2281 113° Southeast 387 445 16,800 2,066 Climbing Kansas City Center
Wed 07:46:54 AM 39.0317 -94.0986 113° Southeast 409 471 19,300 2,213 Climbing Kansas City Center
Wed 07:47:55 AM 38.9892 -93.9678 113° Southeast 415 478 21,300 1,967 Climbing Kansas City Center
Wed 07:48:56 AM 38.9369 -93.8094 113° Southeast 431 496 23,300 1,820 Climbing Kansas City Center
Wed 07:49:57 AM 38.8883 -93.6619 113° Southeast 446 513 25,000 1,475 Climbing Kansas City Center
Wed 07:50:58 AM 38.8372 -93.5117 114° Southeast 455 524 26,300 1,328 Climbing Kansas City Center
Wed 07:51:59 AM 38.7850 -93.3553 113° Southeast 466 536 27,700 1,377 Climbing Kansas City Center
Wed 07:53:00 AM 38.7311 -93.1964 113° Southeast 479 551 29,100 1,377 Climbing Kansas City Center
Wed 07:54:01 AM 38.6781 -93.0378 113° Southeast 483 556 30,500 1,328 Climbing Kansas City Center
Wed 07:55:02 AM 38.6236 -92.8792 114° Southeast 483 556 31,800 1,268 Climbing Kansas City Center
Wed 07:56:04 AM 38.5683 -92.7203 114° Southeast 485 558 33,100 1,122 Climbing Kansas City Center
Wed 07:57:05 AM 38.5136 -92.5608 114° Southeast 486 559 34,100 934 Climbing Kansas City Center
Wed 07:58:06 AM 38.4575 -92.4003 114° Southeast 489 563 35,000 443 Climbing Kansas City Center
Wed 07:59:07 AM 38.4028 -92.2397 113° Southeast 489 563 35,000  Level Kansas City Center
Wed 08:00:08 AM 38.3469 -92.0819 114° Southeast 485 558 35,000  Level Kansas City Center
Wed 08:01:09 AM 38.2914 -91.9267 114° Southeast 480 552 35,000  Level Kansas City Center
Wed 08:02:10 AM 38.2347 -91.7686 114° Southeast 483 556 35,000  Level Kansas City Center
Wed 08:03:12 AM 38.1789 -91.6108 114° Southeast 485 558 35,000  Level Kansas City Center
Wed 08:04:13 AM 38.1222 -91.4542 115° Southeast 485 558 35,000  Level Kansas City Center
Wed 08:05:14 AM 38.0653 -91.2978 115° Southeast 485 558 35,000  Level Kansas City Center
Wed 08:06:15 AM 37.9972 -91.1114 115° Southeast 484 557 35,000  Level Kansas City Center
Wed 08:07:16 AM 37.9492 -90.9792 115° Southeast 482 555 35,000  Level Kansas City Center
Wed 08:08:18 AM 37.8922 -90.8272 115° Southeast 482 555 35,000  Level Kansas City Center
Wed 08:09:19 AM 37.8364 -90.6750 115° Southeast 480 552 35,000  Level Kansas City Center
Wed 08:10:20 AM 37.7694 -90.4956 115° Southeast 475 547 35,000  Level Kansas City Center
Wed 08:11:21 AM 37.7144 -90.3472 115° Southeast 471 542 35,000  Level Kansas City Center
Wed 08:12:22 AM 37.6583 -90.1997 116° Southeast 470 541 35,000  Level Kansas City Center
Wed 08:13:24 AM 37.5975 -90.0531 118° Southeast 474 545 35,000  Level Kansas City Center
Wed 08:14:25 AM 37.5314 -89.8922 117° Southeast 472 543 35,000  Level Kansas City Center
Wed 08:15:26 AM 37.4733 -89.7447 116° Southeast 469 540 35,000  Level Kansas City Center
Wed 08:16:27 AM 37.4117 -89.5986 118° Southeast 470 541 35,000  Level Kansas City Center
Wed 08:17:29 AM 37.3508 -89.4519 118° Southeast 470 541 35,000  Level Kansas City Center
Wed 08:17:44 AM 37.3367 -89.4283 127° Southeast 467 537 35,000  Level Memphis Center
Wed 08:18:44 AM 37.2794 -89.2831 116° Southeast 467 537 35,000  Level Memphis Center
Wed 08:19:44 AM 37.2175 -89.1353 118° Southeast 467 537 35,000  Level Memphis Center
Wed 08:20:44 AM 37.1556 -88.9906 118° Southeast 467 537 35,000  Level Memphis Center
Wed 08:21:44 AM 37.0933 -88.8408 117° Southeast 467 537 35,000  Level Memphis Center
Wed 08:22:44 AM 37.0311 -88.6939 118° Southeast 467 537 35,000  Level Memphis Center
Wed 08:24:44 AM 36.9039 -88.4033 119° Southeast 472 543 35,000  Level Memphis Center
Wed 08:25:44 AM 36.8411 -88.2597 119° Southeast 472 543 35,000  Level Memphis Center
Wed 08:26:44 AM 36.7717 -88.1008 119° Southeast 467 537 35,000  Level Memphis Center
Wed 08:27:44 AM 36.7086 -87.9578 119° Southeast 472 543 35,000  Level Memphis Center
Wed 08:28:44 AM 36.6453 -87.8175 119° Southeast 463 533 35,000  Level Memphis Center
Wed 08:29:44 AM 36.5819 -87.6747 119° Southeast 463 533 35,000  Level Memphis Center
Wed 08:30:44 AM 36.5206 -87.5372 119° Southeast 463 533 35,000  Level Memphis Center
Wed 08:31:44 AM 36.4611 -87.4053 119° Southeast 449 517 35,000  Level Memphis Center
Wed 08:32:44 AM 36.3994 -87.2681 119° Southeast 449 517 35,000  Level Memphis Center
Wed 08:33:44 AM 36.3375 -87.1314 119° Southeast 454 522 35,000  Level Memphis Center
Wed 08:34:44 AM 36.2756 -86.9897 118° Southeast 459 528 35,000  Level Memphis Center
Wed 08:35:44 AM 36.2111 -86.8536 120° Southeast 464 534 35,000  Level Memphis Center
Wed 08:36:44 AM 36.1447 -86.7175 121° Southeast 464 534 35,000  Level Memphis Center
Wed 08:37:44 AM 36.0500 -86.6164 139° Southeast 452 520 35,000  Level Memphis Center
Wed 08:38:44 AM 35.9431 -86.5292 147° Southeast 447 514 35,000  Level Memphis Center
Wed 08:39:44 AM 35.8489 -86.4542 147° Southeast 458 527 35,000 -450 Level Memphis Center
Wed 08:40:44 AM 35.7419 -86.3672 147° Southeast 458 527 34,100 -764 Descending Memphis Center
Wed 08:42:21 AM 35.5550 -86.2161 147° Southeast 477 549 33,000 -420 Descending Atlanta Center
Wed 08:43:21 AM 35.4583 -86.1397 147° Southeast 471 542 33,000 -200 Level Atlanta Center
Wed 08:44:21 AM 35.3369 -86.0425 147° Southeast 476 548 32,600 -700 Descending Atlanta Center
Wed 08:45:21 AM 35.2319 -85.9586 147° Southeast 470 541 31,600 -950 Descending Atlanta Center
Wed 08:46:21 AM 35.1350 -85.8800 146° Southeast 470 541 30,700 -950 Descending Atlanta Center
Wed 08:47:21 AM 35.0278 -85.7964 147° Southeast 470 541 29,700 -1,000 Descending Atlanta Center
Wed 08:48:21 AM 34.9161 -85.7081 147° Southeast 470 541 28,700 -1,000 Descending Atlanta Center
Wed 08:49:21 AM 34.8089 -85.6250 148° Southeast 475 547 27,700 -1,000 Descending Atlanta Center
Wed 08:50:21 AM 34.7056 -85.5422 147° Southeast 470 541 26,700 -1,000 Descending Atlanta Center
Wed 08:51:21 AM 34.6000 -85.4594 147° Southeast 464 534 25,700 -1,000 Descending Atlanta Center
Wed 08:52:21 AM 34.4967 -85.3797 148° Southeast 452 520 24,700 -1,600 Descending Atlanta Center
Wed 08:53:21 AM 34.3953 -85.3000 147° Southeast 442 509 22,500 -2,400 Descending Atlanta Center
Wed 08:54:21 AM 34.2978 -85.2256 148° Southeast 429 494 19,900 -2,500 Descending Atlanta Center
Wed 08:55:21 AM 34.1964 -85.1464 147° Southeast 418 481 17,500 -2,450 Descending Atlanta Center
Wed 08:56:21 AM 34.1136 -85.0600 139° Southeast 404 465 15,000 -1,850 Descending Atlanta Center
Wed 08:57:21 AM 34.0411 -84.9664 133° Southeast 383 441 13,800 -1,100 Descending Atlanta Center
Wed 08:58:21 AM 33.9708 -84.8731 132° Southeast 383 441 12,800 -1,000 Descending Atlanta Center
Wed 08:59:21 AM 33.9006 -84.7872 135° Southeast 370 426 11,800 -1,047 Descending Atlanta Center
Wed 08:59:47 AM 33.8667 -84.7500 138° Southeast 348 400 11,300 -558 Descending Atlanta TRACON
Wed 09:00:47 AM 33.8167 -84.6667 126° Southeast 309 356 11,000 -157 Descending Atlanta TRACON
Wed 09:01:42 AM 33.7667 -84.6000 132° Southeast 263 303 11,000  Level Atlanta TRACON
Wed 09:02:42 AM 33.7333 -84.5333 121° Southeast 265 305 11,000 -750 Level Atlanta TRACON
Wed 09:03:42 AM 33.7333 -84.4500 90° East 265 305 9,500 -1,800 Descending Atlanta TRACON
Wed 09:04:42 AM 33.7333 -84.3667 90° East 249 287 7,400 -2,200 Descending Atlanta TRACON
Wed 09:05:42 AM 33.7333 -84.2833 90° East 240 276 5,100 -1,966 Descending Atlanta TRACON
Wed 09:06:41 AM 33.7167 -84.2000 103° East 242 278 3,500 -1,050 Descending Atlanta TRACON
Wed 09:07:42 AM 33.6667 -84.2000 180° South 195 224 3,000 -248 Descending Atlanta TRACON
Wed 09:08:42 AM 33.6500 -84.2500 248° West 181 208 3,000 -200 Level Atlanta TRACON
Wed 09:09:42 AM 33.6500 -84.3167 270° West 175 201 2,600 -550 Descending Atlanta TRACON
Wed 09:10:42 AM 33.6500 -84.3500 270° West 123 142 1,900 -700 Descending Atlanta TRACON
Wed 09:11:42 AM 33.6500 -84.4000 270° West 128 147 1,200 -700 Descending Atlanta TRACON
Wed 09:13:00 AM 33.6367 -84.4279 126° Southeast  Level Estimated
Wed 09:20:00 AM 33.6367 -84.4279 North  Level Estimated

Login

Don't have an account? Register now (free) for customized features, flight alerts, and more!